createdAt,value
2018-05-02T00:00:05.660Z,932.45
2018-05-02T00:00:18.193Z,932.44
2018-05-02T00:00:30.758Z,932.4
2018-05-02T00:00:43.753Z,932.39
2018-05-02T00:00:55.825Z,932.49
2018-05-02T00:01:08.389Z,932.44
2018-05-02T00:01:21.407Z,932.43
2018-05-02T00:01:33.970Z,932.4
2018-05-02T00:01:46.536Z,932.41
2018-05-02T00:01:59.552Z,932.48
2018-05-02T00:02:12.558Z,932.44
2018-05-02T00:02:25.098Z,932.45
2018-05-02T00:02:37.656Z,932.45
2018-05-02T00:02:50.673Z,932.45
2018-05-02T00:03:03.710Z,932.46
2018-05-02T00:03:16.297Z,932.46
2018-05-02T00:03:29.286Z,932.46
2018-05-02T00:03:42.306Z,932.43
2018-05-02T00:03:55.335Z,932.42
2018-05-02T00:04:07.884Z,932.43
2018-05-02T00:04:20.890Z,932.48
2018-05-02T00:04:33.404Z,932.43
2018-05-02T00:04:45.959Z,932.42
2018-05-02T00:04:58.534Z,932.4
2018-05-02T00:05:10.643Z,932.42
2018-05-02T00:05:23.701Z,932.44
2018-05-02T00:05:36.755Z,932.43
2018-05-02T00:05:49.743Z,932.48
2018-05-02T00:06:01.853Z,932.48
2018-05-02T00:06:13.947Z,932.49
2018-05-02T00:06:26.476Z,932.48
2018-05-02T00:06:38.533Z,932.43
2018-05-02T00:06:51.492Z,932.45
2018-05-02T00:07:05.462Z,932.44
2018-05-02T00:07:18.507Z,932.44
2018-05-02T00:07:31.059Z,932.45
2018-05-02T00:07:43.155Z,932.44
2018-05-02T00:07:56.151Z,932.43
2018-05-02T00:08:08.718Z,932.44
2018-05-02T00:08:21.711Z,932.46
2018-05-02T00:08:34.315Z,932.46
2018-05-02T00:08:47.324Z,932.46
2018-05-02T00:09:00.374Z,932.49
2018-05-02T00:09:12.970Z,932.45
2018-05-02T00:09:26.036Z,932.43
2018-05-02T00:09:38.587Z,932.47
2018-05-02T00:09:51.184Z,932.47
2018-05-02T00:10:02.768Z,932.51
2018-05-02T00:10:14.366Z,932.49
2018-05-02T00:10:27.359Z,932.46
2018-05-02T00:10:40.334Z,932.48
2018-05-02T00:10:53.355Z,932.5
2018-05-02T00:11:04.961Z,932.5
2018-05-02T00:11:17.556Z,932.47
2018-05-02T00:11:30.131Z,932.49
2018-05-02T00:11:42.701Z,932.51
2018-05-02T00:11:55.262Z,932.5
2018-05-02T00:12:07.326Z,932.48
2018-05-02T00:12:20.367Z,932.5
2018-05-02T00:12:33.435Z,932.48
2018-05-02T00:12:46.476Z,932.49
2018-05-02T00:12:59.030Z,932.51
2018-05-02T00:13:11.573Z,932.45
2018-05-02T00:13:24.129Z,932.51
2018-05-02T00:13:37.141Z,932.52
2018-05-02T00:13:49.699Z,932.55
2018-05-02T00:14:02.752Z,932.53
2018-05-02T00:14:15.330Z,932.51
2018-05-02T00:14:27.896Z,932.53
2018-05-02T00:14:40.962Z,932.51
2018-05-02T00:14:53.953Z,932.54
2018-05-02T00:15:06.500Z,932.55
2018-05-02T00:15:19.488Z,932.53
2018-05-02T00:15:32.505Z,932.56
2018-05-02T00:15:45.515Z,932.51
2018-05-02T00:15:58.053Z,932.51
2018-05-02T00:16:10.112Z,932.54
2018-05-02T00:16:23.141Z,932.53
2018-05-02T00:16:35.691Z,932.59
2018-05-02T00:16:48.277Z,932.56
2018-05-02T00:17:01.332Z,932.53
2018-05-02T00:17:13.879Z,932.53
2018-05-02T00:17:26.414Z,932.59
2018-05-02T00:17:38.917Z,932.57
2018-05-02T00:17:51.915Z,932.61
2018-05-02T00:18:05.143Z,932.55
2018-05-02T00:18:18.562Z,932.5
2018-05-02T00:18:31.575Z,932.54
2018-05-02T00:18:44.098Z,932.53
2018-05-02T00:18:56.199Z,932.54
2018-05-02T00:19:08.804Z,932.59
2018-05-02T00:19:21.369Z,932.55
2018-05-02T00:19:33.905Z,932.56
2018-05-02T00:19:46.478Z,932.56
2018-05-02T00:19:59.049Z,932.58
2018-05-02T00:20:11.137Z,932.58
2018-05-02T00:20:23.191Z,932.53
2018-05-02T00:20:36.208Z,932.56
2018-05-02T00:20:48.784Z,932.59
2018-05-02T00:21:00.405Z,932.58
2018-05-02T00:21:12.012Z,932.58
2018-05-02T00:21:25.076Z,932.57
2018-05-02T00:21:36.685Z,932.58
2018-05-02T00:21:49.706Z,932.59
2018-05-02T00:22:02.212Z,932.61
2018-05-02T00:22:18.017Z,932.63
2018-05-02T00:22:30.560Z,932.64
2018-05-02T00:22:43.607Z,932.6
2018-05-02T00:22:56.648Z,932.59
2018-05-02T00:23:09.719Z,932.57
2018-05-02T00:23:22.282Z,932.6
2018-05-02T00:23:34.829Z,932.61
2018-05-02T00:23:47.375Z,932.6
2018-05-02T00:23:59.474Z,932.58
2018-05-02T00:24:12.050Z,932.64
2018-05-02T00:24:25.100Z,932.66
2018-05-02T00:24:37.678Z,932.63
2018-05-02T00:24:50.688Z,932.64
2018-05-02T00:25:03.725Z,932.6
2018-05-02T00:25:15.791Z,932.65
2018-05-02T00:25:28.798Z,932.67
2018-05-02T00:25:41.768Z,932.65
2018-05-02T00:25:54.831Z,932.62
2018-05-02T00:26:07.391Z,932.64
2018-05-02T00:26:19.963Z,932.59
2018-05-02T00:26:32.523Z,932.68
2018-05-02T00:26:45.052Z,932.61
2018-05-02T00:26:57.177Z,932.62
2018-05-02T00:27:10.186Z,932.62
2018-05-02T00:27:23.230Z,932.65
2018-05-02T00:27:36.235Z,932.65
2018-05-02T00:27:49.275Z,932.63
2018-05-02T00:28:01.805Z,932.64
2018-05-02T00:28:13.869Z,932.61
2018-05-02T00:28:26.848Z,932.66
2018-05-02T00:28:40.220Z,932.65
2018-05-02T00:28:53.340Z,932.7
2018-05-02T00:29:05.877Z,932.72
2018-05-02T00:29:18.409Z,932.66
2018-05-02T00:29:30.515Z,932.63
2018-05-02T00:29:43.073Z,932.69
2018-05-02T00:29:55.695Z,932.69
2018-05-02T00:30:08.224Z,932.71
2018-05-02T00:30:20.769Z,932.66
2018-05-02T00:30:33.266Z,932.67
2018-05-02T00:30:46.306Z,932.66
2018-05-02T00:30:59.338Z,932.7
2018-05-02T00:31:11.906Z,932.7
2018-05-02T00:31:24.929Z,932.68
2018-05-02T00:31:37.944Z,932.68
2018-05-02T00:31:49.617Z,932.7
2018-05-02T00:32:02.153Z,932.66
2018-05-02T00:32:15.532Z,932.68
2018-05-02T00:32:28.071Z,932.73
2018-05-02T00:32:41.105Z,932.69
2018-05-02T00:32:53.609Z,932.7
2018-05-02T00:33:06.152Z,932.7
2018-05-02T00:33:18.710Z,932.74
2018-05-02T00:33:31.219Z,932.73
2018-05-02T00:33:43.775Z,932.74
2018-05-02T00:33:56.771Z,932.69
2018-05-02T00:34:08.463Z,932.69
2018-05-02T00:34:21.562Z,932.71
2018-05-02T00:34:34.076Z,932.69
2018-05-02T00:34:45.697Z,932.7
2018-05-02T00:34:58.267Z,932.72
2018-05-02T00:35:11.266Z,932.72
2018-05-02T00:35:23.821Z,932.67
2018-05-02T00:35:36.858Z,932.69
2018-05-02T00:35:48.924Z,932.67
2018-05-02T00:36:01.519Z,932.73
2018-05-02T00:36:13.125Z,932.69
2018-05-02T00:36:25.670Z,932.75
2018-05-02T00:36:38.654Z,932.68
2018-05-02T00:36:51.712Z,932.7
2018-05-02T00:37:04.287Z,932.69
2018-05-02T00:37:21.449Z,932.71
2018-05-02T00:37:33.509Z,932.71
2018-05-02T00:37:46.083Z,932.71
2018-05-02T00:37:59.091Z,932.68
2018-05-02T00:38:11.653Z,932.72
2018-05-02T00:38:23.734Z,932.74
2018-05-02T00:38:36.744Z,932.65
2018-05-02T00:38:48.358Z,932.72
2018-05-02T00:39:00.479Z,932.66
2018-05-02T00:39:13.508Z,932.71
2018-05-02T00:39:25.126Z,932.7
2018-05-02T00:39:37.716Z,932.68
2018-05-02T00:39:50.276Z,932.69
2018-05-02T00:40:03.313Z,932.66
2018-05-02T00:40:15.864Z,932.64
2018-05-02T00:40:27.967Z,932.66
2018-05-02T00:40:40.494Z,932.64
2018-05-02T00:40:52.559Z,932.68
2018-05-02T00:41:05.588Z,932.68
2018-05-02T00:41:18.145Z,932.64
2018-05-02T00:41:31.161Z,932.62
2018-05-02T00:41:43.684Z,932.66
2018-05-02T00:41:55.301Z,932.67
2018-05-02T00:42:07.837Z,932.65
2018-05-02T00:42:20.835Z,932.72
2018-05-02T00:42:33.879Z,932.68
2018-05-02T00:42:46.892Z,932.68
2018-05-02T00:42:58.964Z,932.71
2018-05-02T00:43:11.571Z,932.73
2018-05-02T00:43:24.099Z,932.68
2018-05-02T00:43:37.113Z,932.68
2018-05-02T00:43:50.213Z,932.7
2018-05-02T00:44:03.174Z,932.66
2018-05-02T00:44:15.720Z,932.7
2018-05-02T00:44:28.292Z,932.75
2018-05-02T00:44:41.309Z,932.75
2018-05-02T00:44:53.418Z,932.66
2018-05-02T00:45:05.570Z,932.75
2018-05-02T00:45:18.131Z,932.7
2018-05-02T00:45:31.132Z,932.72
2018-05-02T00:45:43.655Z,932.81
2018-05-02T00:45:56.687Z,932.83
2018-05-02T00:46:09.683Z,932.77
2018-05-02T00:46:22.234Z,932.77
2018-05-02T00:46:34.777Z,932.77
2018-05-02T00:46:46.836Z,932.77
2018-05-02T00:46:59.932Z,932.81
2018-05-02T00:47:11.983Z,932.78
2018-05-02T00:47:25.007Z,932.83
2018-05-02T00:47:37.132Z,932.82
2018-05-02T00:47:50.155Z,932.79
2018-05-02T00:48:02.195Z,932.84
2018-05-02T00:48:15.207Z,932.77
2018-05-02T00:48:27.789Z,932.82
2018-05-02T00:48:40.306Z,932.74
2018-05-02T00:48:53.339Z,932.82
2018-05-02T00:49:05.948Z,932.75
2018-05-02T00:49:18.018Z,932.8
2018-05-02T00:49:30.986Z,932.75
2018-05-02T00:49:43.516Z,932.78
2018-05-02T00:49:56.549Z,932.72
2018-05-02T00:50:09.603Z,932.78
2018-05-02T00:50:22.646Z,932.75
2018-05-02T00:50:35.661Z,932.73
2018-05-02T00:50:48.659Z,932.73
2018-05-02T00:51:01.264Z,932.81
2018-05-02T00:51:13.319Z,932.73
2018-05-02T00:51:26.313Z,932.73
2018-05-02T00:51:38.447Z,932.73
2018-05-02T00:51:51.013Z,932.74
2018-05-02T00:52:03.562Z,932.75
2018-05-02T00:52:16.098Z,932.75
2018-05-02T00:52:33.175Z,932.72
2018-05-02T00:52:45.263Z,932.72
2018-05-02T00:52:56.906Z,932.76
2018-05-02T00:53:09.039Z,932.74
2018-05-02T00:53:21.602Z,932.74
2018-05-02T00:53:34.145Z,932.76
2018-05-02T00:53:47.183Z,932.77
2018-05-02T00:53:59.277Z,932.75
2018-05-02T00:54:11.391Z,932.73
2018-05-02T00:54:23.948Z,932.72
2018-05-02T00:54:36.505Z,932.74
2018-05-02T00:54:49.513Z,932.76
2018-05-02T00:55:02.555Z,932.75
2018-05-02T00:55:15.095Z,932.76
2018-05-02T00:55:28.144Z,932.84
2018-05-02T00:55:41.148Z,932.85
2018-05-02T00:55:54.165Z,932.78
2018-05-02T00:56:06.221Z,932.78
2018-05-02T00:56:18.761Z,932.78
2018-05-02T00:56:31.760Z,932.79
2018-05-02T00:56:44.309Z,932.79
2018-05-02T00:56:57.346Z,932.81
2018-05-02T00:57:09.947Z,932.79
2018-05-02T00:57:23.006Z,932.75
2018-05-02T00:57:34.642Z,932.75
2018-05-02T00:57:47.623Z,932.75
2018-05-02T00:58:00.151Z,932.78
2018-05-02T00:58:13.165Z,932.79
2018-05-02T00:58:26.199Z,932.79
2018-05-02T00:58:38.253Z,932.83
2018-05-02T00:58:51.269Z,932.83
2018-05-02T00:59:04.290Z,932.77
2018-05-02T00:59:16.858Z,932.81
2018-05-02T00:59:29.926Z,932.8
2018-05-02T00:59:42.467Z,932.76
2018-05-02T00:59:55.478Z,932.79
2018-05-02T01:00:07.584Z,932.78
2018-05-02T01:00:19.194Z,932.78
2018-05-02T01:00:32.302Z,932.79
2018-05-02T01:00:45.298Z,932.79
2018-05-02T01:00:57.870Z,932.77
2018-05-02T01:01:09.937Z,932.78
2018-05-02T01:01:22.933Z,932.78
2018-05-02T01:01:35.519Z,932.8
2018-05-02T01:01:48.540Z,932.81
2018-05-02T01:02:01.617Z,932.76
2018-05-02T01:02:14.169Z,932.79
2018-05-02T01:02:26.694Z,932.79
2018-05-02T01:02:40.476Z,932.77
2018-05-02T01:02:53.021Z,932.79
2018-05-02T01:03:04.154Z,932.78
2018-05-02T01:03:16.719Z,932.79
2018-05-02T01:03:29.770Z,932.8
2018-05-02T01:03:42.771Z,932.81
2018-05-02T01:03:55.320Z,932.8
2018-05-02T01:04:08.306Z,932.8
2018-05-02T01:04:21.334Z,932.78
2018-05-02T01:04:34.396Z,932.75
2018-05-02T01:04:47.405Z,932.79
2018-05-02T01:05:00.449Z,932.76
2018-05-02T01:05:13.456Z,932.78
2018-05-02T01:05:25.988Z,932.75
2018-05-02T01:05:38.056Z,932.78
2018-05-02T01:05:51.075Z,932.76
2018-05-02T01:06:02.694Z,932.76
2018-05-02T01:06:15.231Z,932.78
2018-05-02T01:06:27.341Z,932.77
2018-05-02T01:06:40.324Z,932.75
2018-05-02T01:06:52.871Z,932.8
2018-05-02T01:07:05.408Z,932.74
2018-05-02T01:07:18.464Z,932.75
2018-05-02T01:07:31.031Z,932.74
2018-05-02T01:07:44.068Z,932.75
2018-05-02T01:07:57.110Z,932.75
2018-05-02T01:08:08.728Z,932.74
2018-05-02T01:08:21.746Z,932.7
2018-05-02T01:08:33.821Z,932.73
2018-05-02T01:08:46.881Z,932.73
2018-05-02T01:08:59.917Z,932.74
2018-05-02T01:09:12.010Z,932.75
2018-05-02T01:09:24.582Z,932.76
2018-05-02T01:09:37.598Z,932.77
2018-05-02T01:09:49.670Z,932.82
2018-05-02T01:10:02.190Z,932.79
2018-05-02T01:10:14.779Z,932.77
2018-05-02T01:10:27.801Z,932.77
2018-05-02T01:10:40.796Z,932.82
2018-05-02T01:10:53.347Z,932.81
2018-05-02T01:11:05.904Z,932.76
2018-05-02T01:11:18.953Z,932.78
2018-05-02T01:11:31.947Z,932.82
2018-05-02T01:11:44.965Z,932.77
2018-05-02T01:11:57.932Z,932.82
2018-05-02T01:12:10.037Z,932.81
2018-05-02T01:12:23.063Z,932.84
2018-05-02T01:12:35.620Z,932.82
2018-05-02T01:12:48.649Z,932.81
2018-05-02T01:13:01.645Z,932.82
2018-05-02T01:13:13.738Z,932.8
2018-05-02T01:13:26.263Z,932.77
2018-05-02T01:13:38.369Z,932.81
2018-05-02T01:13:51.395Z,932.81
2018-05-02T01:14:04.451Z,932.79
2018-05-02T01:14:16.998Z,932.82
2018-05-02T01:14:29.515Z,932.81
2018-05-02T01:14:42.070Z,932.81
2018-05-02T01:14:54.642Z,932.78
2018-05-02T01:15:07.701Z,932.79
2018-05-02T01:15:20.770Z,932.79
2018-05-02T01:15:32.852Z,932.82
2018-05-02T01:15:44.948Z,932.81
2018-05-02T01:15:57.484Z,932.76
2018-05-02T01:16:09.561Z,932.78
2018-05-02T01:16:22.110Z,932.78
2018-05-02T01:16:35.142Z,932.78
2018-05-02T01:16:47.252Z,932.77
2018-05-02T01:17:00.275Z,932.81
2018-05-02T01:17:12.839Z,932.8
2018-05-02T01:17:25.875Z,932.79
2018-05-02T01:17:37.483Z,932.77
2018-05-02T01:17:50.500Z,932.83
2018-05-02T01:18:03.075Z,932.84
2018-05-02T01:18:15.656Z,932.85
2018-05-02T01:18:28.225Z,932.89
2018-05-02T01:18:41.224Z,932.8
2018-05-02T01:18:54.258Z,932.83
2018-05-02T01:19:06.797Z,932.8
2018-05-02T01:19:19.360Z,932.79
2018-05-02T01:19:31.919Z,932.84
2018-05-02T01:19:44.496Z,932.82
2018-05-02T01:19:57.034Z,932.84
2018-05-02T01:20:09.597Z,932.77
2018-05-02T01:20:22.608Z,932.8
2018-05-02T01:20:34.649Z,932.76
2018-05-02T01:20:47.207Z,932.78
2018-05-02T01:21:00.247Z,932.78
2018-05-02T01:21:12.838Z,932.79
2018-05-02T01:21:25.385Z,932.79
2018-05-02T01:21:37.917Z,932.77
2018-05-02T01:21:50.979Z,932.81
2018-05-02T01:22:04.081Z,932.79
2018-05-02T01:22:17.140Z,932.79
2018-05-02T01:22:30.162Z,932.79
2018-05-02T01:22:44.119Z,932.81
2018-05-02T01:22:57.081Z,932.77
2018-05-02T01:23:10.134Z,932.81
2018-05-02T01:23:23.116Z,932.82
2018-05-02T01:23:35.661Z,932.82
2018-05-02T01:23:48.701Z,932.79
2018-05-02T01:24:01.718Z,932.77
2018-05-02T01:24:13.828Z,932.79
2018-05-02T01:24:26.046Z,932.8
2018-05-02T01:24:39.086Z,932.78
2018-05-02T01:24:51.616Z,932.8
2018-05-02T01:25:04.152Z,932.83
2018-05-02T01:25:16.689Z,932.76
2018-05-02T01:25:29.681Z,932.8
2018-05-02T01:25:42.741Z,932.8
2018-05-02T01:25:55.747Z,932.8
2018-05-02T01:26:08.306Z,932.8
2018-05-02T01:26:21.268Z,932.8
2018-05-02T01:26:33.782Z,932.8
2018-05-02T01:26:46.844Z,932.78
2018-05-02T01:26:58.915Z,932.81
2018-05-02T01:27:11.503Z,932.83
2018-05-02T01:27:24.549Z,932.83
2018-05-02T01:27:37.547Z,932.84
2018-05-02T01:27:50.578Z,932.81
2018-05-02T01:28:03.590Z,932.87
2018-05-02T01:28:16.139Z,932.81
2018-05-02T01:28:28.271Z,932.83
2018-05-02T01:28:41.277Z,932.8
2018-05-02T01:28:53.847Z,932.81
2018-05-02T01:29:06.899Z,932.82
2018-05-02T01:29:19.890Z,932.83
2018-05-02T01:29:32.427Z,932.85
2018-05-02T01:29:45.436Z,932.81
2018-05-02T01:29:58.473Z,932.82
2018-05-02T01:30:11.536Z,932.84
2018-05-02T01:30:23.590Z,932.79
2018-05-02T01:30:35.643Z,932.83
2018-05-02T01:30:47.743Z,932.82
2018-05-02T01:31:00.275Z,932.83
2018-05-02T01:31:12.822Z,932.83
2018-05-02T01:31:25.389Z,932.84
2018-05-02T01:31:37.002Z,932.84
2018-05-02T01:31:49.591Z,932.82
2018-05-02T01:32:02.118Z,932.84
2018-05-02T01:32:15.159Z,932.84
2018-05-02T01:32:28.166Z,932.78
2018-05-02T01:32:41.199Z,932.81
2018-05-02T01:32:53.852Z,932.81
2018-05-02T01:33:06.874Z,932.79
2018-05-02T01:33:19.903Z,932.81
2018-05-02T01:33:32.439Z,932.78
2018-05-02T01:33:45.469Z,932.75
2018-05-02T01:33:58.053Z,932.76
2018-05-02T01:34:10.617Z,932.76
2018-05-02T01:34:23.654Z,932.71
2018-05-02T01:34:36.709Z,932.76
2018-05-02T01:34:49.726Z,932.75
2018-05-02T01:35:02.747Z,932.8
2018-05-02T01:35:15.810Z,932.76
2018-05-02T01:35:27.885Z,932.77
2018-05-02T01:35:40.892Z,932.74
2018-05-02T01:35:53.931Z,932.71
2018-05-02T01:36:05.509Z,932.71
2018-05-02T01:36:18.548Z,932.76
2018-05-02T01:36:31.598Z,932.73
2018-05-02T01:36:44.179Z,932.73
2018-05-02T01:36:57.214Z,932.71
2018-05-02T01:37:09.784Z,932.77
2018-05-02T01:37:22.347Z,932.76
2018-05-02T01:37:35.425Z,932.75
2018-05-02T01:37:49.446Z,932.77
2018-05-02T01:38:01.984Z,932.73
2018-05-02T01:38:13.612Z,932.74
2018-05-02T01:38:25.703Z,932.68
2018-05-02T01:38:38.292Z,932.71
2018-05-02T01:38:50.828Z,932.73
2018-05-02T01:39:03.381Z,932.69
2018-05-02T01:39:15.453Z,932.77
2018-05-02T01:39:27.054Z,932.74
2018-05-02T01:39:40.096Z,932.73
2018-05-02T01:39:52.674Z,932.76
2018-05-02T01:40:05.645Z,932.74
2018-05-02T01:40:18.225Z,932.75
2018-05-02T01:40:30.791Z,932.73
2018-05-02T01:40:43.773Z,932.74
2018-05-02T01:40:56.366Z,932.72
2018-05-02T01:41:08.924Z,932.76
2018-05-02T01:41:21.443Z,932.74
2018-05-02T01:41:34.439Z,932.75
2018-05-02T01:41:47.457Z,932.75
2018-05-02T01:42:00.016Z,932.71
2018-05-02T01:42:13.021Z,932.73
2018-05-02T01:42:25.595Z,932.72
2018-05-02T01:42:37.225Z,932.72
2018-05-02T01:42:49.768Z,932.74
2018-05-02T01:43:01.347Z,932.75
2018-05-02T01:43:13.928Z,932.73
2018-05-02T01:43:26.974Z,932.73
2018-05-02T01:43:38.618Z,932.73
2018-05-02T01:43:51.171Z,932.74
2018-05-02T01:44:04.185Z,932.75
2018-05-02T01:44:17.171Z,932.75
2018-05-02T01:44:29.722Z,932.74
2018-05-02T01:44:42.753Z,932.72
2018-05-02T01:44:55.786Z,932.73
2018-05-02T01:45:08.800Z,932.74
2018-05-02T01:45:21.354Z,932.76
2018-05-02T01:45:34.366Z,932.74
2018-05-02T01:45:47.379Z,932.76
2018-05-02T01:46:00.438Z,932.77
2018-05-02T01:46:12.504Z,932.7
2018-05-02T01:46:25.494Z,932.7
2018-05-02T01:46:38.107Z,932.73
2018-05-02T01:46:51.154Z,932.73
2018-05-02T01:47:03.718Z,932.73
2018-05-02T01:47:16.275Z,932.77
2018-05-02T01:47:28.850Z,932.73
2018-05-02T01:47:41.861Z,932.73
2018-05-02T01:47:54.418Z,932.75
2018-05-02T01:48:06.934Z,932.75
2018-05-02T01:48:19.970Z,932.76
2018-05-02T01:48:32.496Z,932.73
2018-05-02T01:48:45.550Z,932.74
2018-05-02T01:48:58.600Z,932.75
2018-05-02T01:49:11.628Z,932.77
2018-05-02T01:49:24.172Z,932.78
2018-05-02T01:49:37.171Z,932.76
2018-05-02T01:49:49.721Z,932.78
2018-05-02T01:50:01.356Z,932.78
2018-05-02T01:50:13.918Z,932.8
2018-05-02T01:50:26.905Z,932.78
2018-05-02T01:50:39.450Z,932.76
2018-05-02T01:50:52.468Z,932.79
2018-05-02T01:51:05.504Z,932.78
2018-05-02T01:51:18.031Z,932.77
2018-05-02T01:51:31.103Z,932.76
2018-05-02T01:51:44.143Z,932.77
2018-05-02T01:51:57.158Z,932.8
2018-05-02T01:52:09.686Z,932.8
2018-05-02T01:52:22.186Z,932.8
2018-05-02T01:52:35.235Z,932.76
2018-05-02T01:52:48.235Z,932.77
2018-05-02T01:53:01.817Z,932.81
2018-05-02T01:53:14.354Z,932.79
2018-05-02T01:53:27.387Z,932.85
2018-05-02T01:53:39.892Z,932.78
2018-05-02T01:53:51.943Z,932.8
2018-05-02T01:54:04.977Z,932.8
2018-05-02T01:54:17.973Z,932.77
2018-05-02T01:54:31.003Z,932.77
2018-05-02T01:54:43.547Z,932.77
2018-05-02T01:54:56.550Z,932.76
2018-05-02T01:55:09.116Z,932.8
2018-05-02T01:55:21.193Z,932.77
2018-05-02T01:55:33.753Z,932.77
2018-05-02T01:55:46.761Z,932.8
2018-05-02T01:55:59.399Z,932.8
2018-05-02T01:56:11.960Z,932.77
2018-05-02T01:56:24.045Z,932.78
2018-05-02T01:56:37.063Z,932.77
2018-05-02T01:56:50.076Z,932.78
2018-05-02T01:57:02.616Z,932.8
2018-05-02T01:57:14.686Z,932.78
2018-05-02T01:57:27.697Z,932.82
2018-05-02T01:57:40.224Z,932.78
2018-05-02T01:57:53.227Z,932.79
2018-05-02T01:58:05.812Z,932.78
2018-05-02T01:58:18.805Z,932.74
2018-05-02T01:58:30.878Z,932.77
2018-05-02T01:58:43.442Z,932.76
2018-05-02T01:58:56.452Z,932.75
2018-05-02T01:59:08.537Z,932.74
2018-05-02T01:59:20.639Z,932.74
2018-05-02T01:59:33.690Z,932.76
2018-05-02T01:59:46.256Z,932.78
2018-05-02T01:59:59.272Z,932.77
2018-05-02T02:00:12.313Z,932.76
2018-05-02T02:00:24.860Z,932.75
2018-05-02T02:00:37.393Z,932.75
2018-05-02T02:00:49.951Z,932.76
2018-05-02T02:01:02.981Z,932.74
2018-05-02T02:01:15.563Z,932.74
2018-05-02T02:01:28.637Z,932.82
2018-05-02T02:01:41.201Z,932.77
2018-05-02T02:01:54.260Z,932.77
2018-05-02T02:02:06.333Z,932.73
2018-05-02T02:02:19.375Z,932.76
2018-05-02T02:02:32.438Z,932.73
2018-05-02T02:02:45.443Z,932.75
2018-05-02T02:02:58.467Z,932.76
2018-05-02T02:03:11.519Z,932.79
2018-05-02T02:03:24.505Z,932.78
2018-05-02T02:03:37.068Z,932.79
2018-05-02T02:03:50.128Z,932.78
2018-05-02T02:04:02.699Z,932.74
2018-05-02T02:04:15.705Z,932.8
2018-05-02T02:04:27.807Z,932.78
2018-05-02T02:04:40.847Z,932.81
2018-05-02T02:04:53.362Z,932.78
2018-05-02T02:05:04.959Z,932.78
2018-05-02T02:05:17.527Z,932.76
2018-05-02T02:05:30.062Z,932.79
2018-05-02T02:05:42.627Z,932.79
2018-05-02T02:05:55.632Z,932.78
2018-05-02T02:06:07.729Z,932.78
2018-05-02T02:06:20.722Z,932.77
2018-05-02T02:06:33.252Z,932.8
2018-05-02T02:06:45.786Z,932.76
2018-05-02T02:06:57.399Z,932.76
2018-05-02T02:07:10.428Z,932.75
2018-05-02T02:07:22.942Z,932.78
2018-05-02T02:07:35.956Z,932.8
2018-05-02T02:07:48.519Z,932.81
2018-05-02T02:08:01.384Z,932.78
2018-05-02T02:08:14.402Z,932.8
2018-05-02T02:08:26.923Z,932.79
2018-05-02T02:08:39.945Z,932.78
2018-05-02T02:08:52.048Z,932.81
2018-05-02T02:09:04.149Z,932.81
2018-05-02T02:09:17.163Z,932.8
2018-05-02T02:09:29.688Z,932.8
2018-05-02T02:09:42.221Z,932.8
2018-05-02T02:09:54.295Z,932.82
2018-05-02T02:10:06.836Z,932.81
2018-05-02T02:10:19.892Z,932.78
2018-05-02T02:10:32.446Z,932.79
2018-05-02T02:10:45.498Z,932.78
2018-05-02T02:10:58.013Z,932.78
2018-05-02T02:11:10.561Z,932.78
2018-05-02T02:11:23.593Z,932.82
2018-05-02T02:11:36.597Z,932.78
2018-05-02T02:11:49.179Z,932.78
2018-05-02T02:12:01.254Z,932.79
2018-05-02T02:12:13.345Z,932.8
2018-05-02T02:12:25.444Z,932.76
2018-05-02T02:12:38.457Z,932.83
2018-05-02T02:12:51.016Z,932.78
2018-05-02T02:13:04.025Z,932.83
2018-05-02T02:13:16.603Z,932.77
2018-05-02T02:13:29.672Z,932.81
2018-05-02T02:13:42.679Z,932.8
2018-05-02T02:13:55.698Z,932.79
2018-05-02T02:14:08.702Z,932.79
2018-05-02T02:14:20.813Z,932.8
2018-05-02T02:14:32.924Z,932.79
2018-05-02T02:14:45.964Z,932.77
2018-05-02T02:14:59.102Z,932.79
2018-05-02T02:15:12.171Z,932.78
2018-05-02T02:15:24.675Z,932.78
2018-05-02T02:15:37.222Z,932.82
2018-05-02T02:15:49.759Z,932.78
2018-05-02T02:16:01.851Z,932.79
2018-05-02T02:16:13.907Z,932.76
2018-05-02T02:16:26.998Z,932.77
2018-05-02T02:16:39.989Z,932.77
2018-05-02T02:16:53.028Z,932.79
2018-05-02T02:17:05.116Z,932.78
2018-05-02T02:17:18.150Z,932.8
2018-05-02T02:17:30.712Z,932.79
2018-05-02T02:17:43.739Z,932.79
2018-05-02T02:17:56.778Z,932.83
2018-05-02T02:18:09.353Z,932.78
2018-05-02T02:18:22.383Z,932.77
2018-05-02T02:18:35.397Z,932.78
2018-05-02T02:18:47.943Z,932.76
2018-05-02T02:19:00.980Z,932.8
2018-05-02T02:19:13.994Z,932.79
2018-05-02T02:19:26.622Z,932.79
2018-05-02T02:19:39.702Z,932.78
2018-05-02T02:19:52.672Z,932.83
2018-05-02T02:20:04.786Z,932.77
2018-05-02T02:20:17.318Z,932.85
2018-05-02T02:20:30.354Z,932.83
2018-05-02T02:20:43.418Z,932.79
2018-05-02T02:20:55.958Z,932.8
2018-05-02T02:21:08.514Z,932.77
2018-05-02T02:21:21.531Z,932.78
2018-05-02T02:21:34.546Z,932.79
2018-05-02T02:21:47.578Z,932.82
2018-05-02T02:22:00.641Z,932.78
2018-05-02T02:22:13.697Z,932.81
2018-05-02T02:22:26.737Z,932.81
2018-05-02T02:22:39.703Z,932.79
2018-05-02T02:22:51.799Z,932.83
2018-05-02T02:23:05.953Z,932.76
2018-05-02T02:23:18.951Z,932.77
2018-05-02T02:23:31.512Z,932.82
2018-05-02T02:23:43.596Z,932.84
2018-05-02T02:23:56.166Z,932.79
2018-05-02T02:24:08.712Z,932.77
2018-05-02T02:24:21.714Z,932.74
2018-05-02T02:24:34.248Z,932.81
2018-05-02T02:24:47.252Z,932.79
2018-05-02T02:25:00.295Z,932.76
2018-05-02T02:25:12.829Z,932.74
2018-05-02T02:25:25.815Z,932.76
2018-05-02T02:25:38.859Z,932.77
2018-05-02T02:25:51.912Z,932.77
2018-05-02T02:26:04.956Z,932.79
2018-05-02T02:26:17.502Z,932.75
2018-05-02T02:26:30.489Z,932.77
2018-05-02T02:26:43.553Z,932.75
2018-05-02T02:26:56.558Z,932.82
2018-05-02T02:27:09.109Z,932.8
2018-05-02T02:27:21.662Z,932.78
2018-05-02T02:27:34.677Z,932.77
2018-05-02T02:27:47.709Z,932.75
2018-05-02T02:28:00.733Z,932.81
2018-05-02T02:28:12.801Z,932.76
2018-05-02T02:28:25.825Z,932.79
2018-05-02T02:28:38.817Z,932.78
2018-05-02T02:28:51.842Z,932.79
2018-05-02T02:29:04.395Z,932.79
2018-05-02T02:29:16.935Z,932.75
2018-05-02T02:29:29.013Z,932.77
2018-05-02T02:29:41.995Z,932.76
2018-05-02T02:29:54.138Z,932.78
2018-05-02T02:30:06.224Z,932.79
2018-05-02T02:30:17.376Z,932.82
2018-05-02T02:30:30.447Z,932.78
2018-05-02T02:30:42.623Z,932.79
2018-05-02T02:30:55.685Z,932.8
2018-05-02T02:31:07.767Z,932.79
2018-05-02T02:31:19.857Z,932.81
2018-05-02T02:31:31.967Z,932.77
2018-05-02T02:31:44.554Z,932.77
2018-05-02T02:31:57.137Z,932.76
2018-05-02T02:32:08.777Z,932.75
2018-05-02T02:32:20.851Z,932.77
2018-05-02T02:32:33.867Z,932.77
2018-05-02T02:32:46.435Z,932.78
2018-05-02T02:32:58.978Z,932.76
2018-05-02T02:33:11.504Z,932.74
2018-05-02T02:33:24.618Z,932.79
2018-05-02T02:33:37.191Z,932.78
2018-05-02T02:33:49.702Z,932.76
2018-05-02T02:34:02.969Z,932.79
2018-05-02T02:34:16.189Z,932.76
2018-05-02T02:34:29.228Z,932.77
2018-05-02T02:34:42.216Z,932.75
2018-05-02T02:34:54.780Z,932.77
2018-05-02T02:35:07.330Z,932.77
2018-05-02T02:35:19.869Z,932.78
2018-05-02T02:35:32.413Z,932.82
2018-05-02T02:35:45.472Z,932.74
2018-05-02T02:35:57.574Z,932.79
2018-05-02T02:36:10.596Z,932.78
2018-05-02T02:36:23.173Z,932.79
2018-05-02T02:36:35.738Z,932.78
2018-05-02T02:36:48.779Z,932.72
2018-05-02T02:37:01.799Z,932.78
2018-05-02T02:37:14.339Z,932.77
2018-05-02T02:37:26.888Z,932.77
2018-05-02T02:37:39.942Z,932.78
2018-05-02T02:37:52.503Z,932.78
2018-05-02T02:38:04.564Z,932.79
2018-05-02T02:38:18.407Z,932.78
2018-05-02T02:38:30.970Z,932.82
2018-05-02T02:38:43.022Z,932.8